Nearby METAR Reports

 

KMQY - Smyrna, Tennessee, USA
Distance from station: WNW 14mi, 22km
Updated: Sun, 17-Jan-2021 12:56pm CST
Mostly cloudy
Mostly cloudy
 Wind from WSW
Wind: WSW 17 mph , 28 km/h
Temperature: 48°F , 9°C
Wind Chill: 42°F , 6°C
Dew Point: 27°F , -3°C
Humidity: 43%
Barometer: 29.84 inHg , 1010.5 hPa
Clouds: Mostly cloudy
Visibility: 10 miles , 16 km
Cloud details: Mostly cloudy 4500 ft
2021/01/17 18:56 KMQY 171856Z 24015KT 10SM BKN045 09/M03 A2984 RMK AO2 SLP114 T00941028 PNO $
KSYI - Shelbyville, Tennessee, USA
Distance from station: SSW 25mi, 40km
Updated: Sun, 17-Jan-2021 1:15pm CST
Partly cloudy
Partly cloudy
 Wind from WSW
Wind: WSW 18 mph , 30 km/h, Gust: 24 mph , 39 km/h
Temperature: 48°F , 9°C
Wind Chill: 41°F , 5°C
Dew Point: 27°F , -3°C
Humidity: 43%
Barometer: 29.82 inHg , 1009.8 hPa
Clouds: Partly cloudy
Visibility: 10 miles , 16 km
Cloud details: Partly cloudy 4900 ft
Partly cloudy 6000 ft
2021/01/17 19:15 KSYI 171915Z AUTO 25016G21KT 10SM SCT049 SCT060 09/M03 A2982 RMK A01
KBNA - Nashville, Tennessee, USA
Distance from station: NW 25mi, 41km
Updated: Sun, 17-Jan-2021 12:53pm CST
Mostly cloudy
Mostly cloudy
 Wind from W
Wind: W 9 mph , 15 km/h, Gust: 24 mph , 39 km/h
Temperature: 48°F , 9°C
Wind Chill: 44°F , 7°C
Dew Point: 25°F , -4°C
Humidity: 40%
Barometer: 29.83 inHg , 1010.2 hPa
Clouds: Mostly cloudy
Visibility: 10 miles , 16 km
Cloud details: Mostly cloudy 4300 ft
Mostly cloudy 5500 ft
2021/01/17 18:53 KBNA 171853Z 26008G21KT 220V290 10SM BKN043 BKN055 09/M04 A2983 RMK AO2 SLP104 T00891039
 
KRNC - Mcminnville, Tennessee, USA
Distance from station: ESE 30mi, 48km
Updated: Sun, 17-Jan-2021 1:15pm CST
Mostly cloudy
Mostly cloudy
 Wind from WSW
Wind: WSW 14 mph , 22 km/h
Temperature: 45°F , 7°C
Wind Chill: 39°F , 4°C
Dew Point: 27°F , -3°C
Humidity: 49%
Barometer: 29.82 inHg , 1009.8 hPa
Clouds: Mostly cloudy
Visibility: 10 miles , 16 km
Cloud details: Mostly cloudy 4200 ft
Mostly cloudy 5000 ft
2021/01/17 19:15 KRNC 171915Z AUTO 25012KT 10SM BKN042 BKN050 07/M03 A2982 RMK A01
KM33 - Gallatin, Tennessee, USA
Distance from station: N 33mi, 54km
Updated: Wed, 23-May-2018 7:55pm CDT
NOT Current
Clear
Clear
 Wind from calm
Wind: Calm
Temperature: 79°F , 26°C
Dew Point: 66°F , 19°C
Humidity: 65%
Barometer: 30.10 inHg , 1019.3 hPa
Clouds: Clear
Visibility: 10 miles , 16 km
2018/05/24 00:55 KM33 240055Z AUTO 00000KT 10SM CLR 26/19 A3010 RMK A01
KTHA - Tullahoma, Tennessee, USA
Distance from station: S 36mi, 59km
Updated: Sun, 17-Jan-2021 1:15pm CST
Mostly cloudy
Mostly cloudy
 Wind from WSW
Wind: WSW 15 mph , 24 km/h, Gust: 23 mph , 37 km/h
Temperature: 48°F , 9°C
Wind Chill: 42°F , 6°C
Dew Point: 25°F , -4°C
Humidity: 40%
Barometer: 29.81 inHg , 1009.5 hPa
Clouds: Mostly cloudy
Visibility: 10 miles , 16 km
Cloud details: Mostly cloudy 4600 ft
Mostly cloudy 5500 ft
2021/01/17 19:15 KTHA 171915Z AUTO 24013G20KT 10SM BKN046 BKN055 09/M04 A2981 RMK A01
 
KJWN - Nashv/Jc Tune, Tennessee, USA
Distance from station: WNW 37mi, 60km
Updated: Sun, 17-Jan-2021 1:15pm CST
Overcast
Overcast
 Wind from W
Wind: W 20 mph , 31 km/h
Temperature: 46°F , 8°C
Wind Chill: 38°F , 3°C
Dew Point: 25°F , -4°C
Humidity: 43%
Barometer: 29.80 inHg , 1009.1 hPa
Clouds: Overcast
Visibility: 10 miles , 16 km
Cloud details: Overcast 6000 ft
2021/01/17 19:15 KJWN 171915Z AUTO 27017KT 10SM OVC060 08/M04 A2980 RMK A01
KSRB - Sparta, Tennessee, USA
Distance from station: ENE 45mi, 72km
Updated: Sun, 17-Jan-2021 1:15pm CST
Overcast
Overcast
 Wind from SW
Wind: SW 10 mph , 17 km/h, Gust: 20 mph , 31 km/h
Temperature: 45°F , 7°C
Wind Chill: 40°F , 4°C
Dew Point: 28°F , -2°C
Humidity: 53%
Barometer: 29.81 inHg , 1009.5 hPa
Clouds: Overcast
Visibility: 10 miles , 16 km
Cloud details: Mostly cloudy 4100 ft
Mostly cloudy 4900 ft
Overcast 5500 ft
2021/01/17 19:15 KSRB 171915Z AUTO 23009G17KT 210V270 10SM BKN041 BKN049 OVC055 07/M02 A2981 RMK A01
K1M5 - Portland, Tennessee, USA
Distance from station: NNW 49mi, 78km
Updated: Sun, 17-Jan-2021 1:15pm CST
Overcast
Overcast
 Wind from W
Wind: W 9 mph , 15 km/h, Gust: 16 mph , 26 km/h
Temperature: 43°F , 6°C
Wind Chill: 38°F , 3°C
Dew Point: 28°F , -2°C
Humidity: 57%
Barometer: 29.80 inHg , 1009.1 hPa
Clouds: Overcast
Visibility: 10 miles , 16 km
Cloud details: Mostly cloudy 4100 ft
Overcast 4800 ft
2021/01/17 19:15 K1M5 171915Z AUTO 26008G14KT 10SM BKN041 OVC048 06/M02 A2980 RMK A01